Lakeside City, Texas
Current Conditions -  °F | °C
As of 9:55 PM on Wednesday 28 Jan 2015 (Local Time) from KCWC Reporting Station
Clear Clear  
Wind Chill: 57°   Ceiling: Unl
Heat Index: 57°   Visibility: 10mi
Dew Point: 38°   Wind: 3mph
Humidity: 49%   Direction: 290°WNW
Pressure: 30.02"   Gusts: NA
Location:  33.838°N, 98.5232°W
Report Text: KCWC 290355Z AUTO 29003KT 10SM CLR 14/03 A3002 RMK AO2 T01380032
Loading
Personal Weather Stations






























Interactive Weather Map New forecast layout! Learn more

10-Day Weather Forecast

Advertisements
Track Severe Weather on mobile